createdAt,value
2017-06-02T00:00:14.254Z,0
2017-06-02T00:01:15.688Z,0
2017-06-02T00:02:17.122Z,0
2017-06-02T00:03:18.553Z,0
2017-06-02T00:04:19.996Z,0
2017-06-02T00:05:21.439Z,0
2017-06-02T00:06:22.879Z,0
2017-06-02T00:07:24.317Z,0
2017-06-02T00:08:25.751Z,0
2017-06-02T00:09:27.192Z,0
2017-06-02T00:10:28.629Z,0
2017-06-02T00:11:30.068Z,0
2017-06-02T00:12:31.501Z,0
2017-06-02T00:13:32.932Z,0
2017-06-02T00:14:34.365Z,0
2017-06-02T00:15:35.803Z,0
2017-06-02T00:16:37.248Z,0
2017-06-02T00:17:38.685Z,0
2017-06-02T00:18:40.120Z,0
2017-06-02T00:19:41.562Z,0
2017-06-02T00:20:42.997Z,0
2017-06-02T00:21:44.492Z,0
2017-06-02T00:22:45.866Z,0
2017-06-02T00:23:47.307Z,0
2017-06-02T00:24:48.744Z,0
2017-06-02T00:25:50.188Z,0
2017-06-02T00:26:51.621Z,0
2017-06-02T00:27:53.057Z,0
2017-06-02T00:28:54.499Z,0
2017-06-02T00:29:55.943Z,0
2017-06-02T00:30:57.378Z,0
2017-06-02T00:31:58.821Z,0
2017-06-02T00:33:00.262Z,0
2017-06-02T00:34:01.691Z,0
2017-06-02T00:35:03.126Z,0
2017-06-02T00:36:04.565Z,0
2017-06-02T00:37:06.007Z,0
2017-06-02T00:38:07.444Z,0
2017-06-02T00:39:08.887Z,0
2017-06-02T00:40:10.323Z,0
2017-06-02T00:41:11.765Z,0
2017-06-02T00:42:13.202Z,0
2017-06-02T00:43:14.641Z,0
2017-06-02T00:44:16.084Z,0
2017-06-02T00:45:17.515Z,0
2017-06-02T00:46:18.954Z,0
2017-06-02T00:47:20.392Z,0
2017-06-02T00:48:21.839Z,0
2017-06-02T00:49:23.273Z,0
2017-06-02T00:50:24.711Z,0
2017-06-02T00:51:26.147Z,0
2017-06-02T00:52:27.591Z,0
2017-06-02T00:53:29.030Z,0
2017-06-02T00:54:30.477Z,0
2017-06-02T00:55:31.905Z,0
2017-06-02T00:56:33.347Z,0
2017-06-02T00:57:34.786Z,0
2017-06-02T00:58:36.225Z,0
2017-06-02T00:59:37.659Z,0
2017-06-02T01:00:39.089Z,0
2017-06-02T01:01:40.587Z,0
2017-06-02T01:02:42.021Z,0
2017-06-02T01:03:43.460Z,0
2017-06-02T01:04:44.893Z,0
2017-06-02T01:05:46.333Z,0
2017-06-02T01:06:47.770Z,0
2017-06-02T01:07:49.214Z,0
2017-06-02T01:08:50.687Z,0
2017-06-02T01:09:52.119Z,0
2017-06-02T01:10:53.562Z,0
2017-06-02T01:11:54.999Z,0
2017-06-02T01:12:56.440Z,0
2017-06-02T01:13:57.878Z,0
2017-06-02T01:14:59.323Z,0
2017-06-02T01:16:00.765Z,0
2017-06-02T01:17:02.205Z,0
2017-06-02T01:18:03.651Z,0
2017-06-02T01:19:05.121Z,0
2017-06-02T01:20:06.552Z,0
2017-06-02T01:21:07.990Z,0
2017-06-02T01:22:09.425Z,0
2017-06-02T01:23:10.865Z,0
2017-06-02T01:24:12.303Z,0
2017-06-02T01:25:13.733Z,0
2017-06-02T01:26:15.177Z,0
2017-06-02T01:27:16.622Z,0
2017-06-02T01:28:18.059Z,0
2017-06-02T01:29:19.501Z,0
2017-06-02T01:30:20.945Z,0
2017-06-02T01:31:22.386Z,0
2017-06-02T01:32:23.814Z,0
2017-06-02T01:33:25.253Z,0
2017-06-02T01:34:26.701Z,0
2017-06-02T01:35:28.134Z,0
2017-06-02T01:36:29.567Z,0
2017-06-02T01:37:31.089Z,0
2017-06-02T01:38:32.522Z,0
2017-06-02T01:39:33.955Z,0
2017-06-02T01:40:35.391Z,0
2017-06-02T01:41:36.866Z,0
2017-06-02T01:42:38.333Z,0
2017-06-02T01:43:39.767Z,0
2017-06-02T01:44:41.206Z,0
2017-06-02T01:45:42.644Z,0
2017-06-02T01:46:44.074Z,0
2017-06-02T01:47:45.523Z,0
2017-06-02T01:48:46.981Z,0
2017-06-02T01:49:48.418Z,0
2017-06-02T01:50:49.857Z,0
2017-06-02T01:51:51.295Z,0
2017-06-02T01:52:52.738Z,0
2017-06-02T01:53:54.181Z,0
2017-06-02T01:54:55.613Z,0
2017-06-02T01:55:57.087Z,0
2017-06-02T01:56:58.530Z,0
2017-06-02T01:57:59.964Z,0
2017-06-02T01:59:01.415Z,0
2017-06-02T02:00:02.886Z,0
2017-06-02T02:01:04.320Z,0
2017-06-02T02:02:05.755Z,0
2017-06-02T02:03:07.195Z,0
2017-06-02T02:04:08.633Z,0
2017-06-02T02:05:10.071Z,0
2017-06-02T02:06:11.509Z,0
2017-06-02T02:07:12.974Z,0
2017-06-02T02:08:14.407Z,0
2017-06-02T02:09:15.842Z,0
2017-06-02T02:10:17.279Z,0
2017-06-02T02:11:18.717Z,0
2017-06-02T02:12:20.155Z,0
2017-06-02T02:13:21.595Z,0
2017-06-02T02:14:23.034Z,0
2017-06-02T02:15:24.473Z,0
2017-06-02T02:16:25.911Z,0
2017-06-02T02:17:27.353Z,0
2017-06-02T02:18:28.795Z,0
2017-06-02T02:19:30.258Z,0
2017-06-02T02:20:31.698Z,0
2017-06-02T02:21:33.131Z,0
2017-06-02T02:22:34.565Z,0
2017-06-02T02:23:36.001Z,0
2017-06-02T02:24:37.436Z,0
2017-06-02T02:25:38.950Z,0
2017-06-02T02:26:40.411Z,0
2017-06-02T02:27:41.854Z,0
2017-06-02T02:28:43.286Z,0
2017-06-02T02:29:44.725Z,0
2017-06-02T02:30:46.156Z,0
2017-06-02T02:31:47.606Z,0
2017-06-02T02:32:49.056Z,0
2017-06-02T02:33:50.501Z,0
2017-06-02T02:34:51.934Z,0
2017-06-02T02:35:53.367Z,0
2017-06-02T02:36:54.804Z,0
2017-06-02T02:37:56.307Z,0
2017-06-02T02:38:57.742Z,0
2017-06-02T02:39:59.178Z,0
2017-06-02T02:41:00.613Z,0
2017-06-02T02:42:02.050Z,0
2017-06-02T02:43:03.489Z,0
2017-06-02T02:44:04.919Z,0
2017-06-02T02:45:06.358Z,0
2017-06-02T02:46:07.789Z,0
2017-06-02T02:47:09.228Z,0
2017-06-02T02:48:10.661Z,0
2017-06-02T02:49:12.096Z,0
2017-06-02T02:50:13.533Z,0
2017-06-02T02:51:15.035Z,0
2017-06-02T02:52:16.492Z,0
2017-06-02T02:53:17.936Z,0
2017-06-02T02:54:19.378Z,0
2017-06-02T02:55:20.823Z,0
2017-06-02T02:56:22.257Z,0
2017-06-02T02:57:23.688Z,0
2017-06-02T02:58:25.165Z,0
2017-06-02T02:59:26.603Z,0
2017-06-02T03:00:28.040Z,0
2017-06-02T03:01:29.484Z,0
2017-06-02T03:02:30.930Z,0
2017-06-02T03:03:32.376Z,0
2017-06-02T03:04:33.808Z,0
2017-06-02T03:05:35.239Z,0
2017-06-02T03:06:36.698Z,0
2017-06-02T03:07:38.141Z,0
2017-06-02T03:08:39.578Z,0
2017-06-02T03:09:41.019Z,0
2017-06-02T03:10:42.485Z,0
2017-06-02T03:11:43.919Z,0
2017-06-02T03:12:45.360Z,0
2017-06-02T03:13:46.795Z,0
2017-06-02T03:14:48.229Z,0
2017-06-02T03:15:49.662Z,0
2017-06-02T03:16:51.118Z,0
2017-06-02T03:17:52.546Z,0
2017-06-02T03:18:53.978Z,0
2017-06-02T03:19:55.412Z,0
2017-06-02T03:20:56.854Z,0
2017-06-02T03:21:58.291Z,0
2017-06-02T03:23:00.452Z,0
2017-06-02T03:24:01.885Z,0
2017-06-02T03:25:03.322Z,0
2017-06-02T03:26:04.758Z,0
2017-06-02T03:27:06.193Z,0
2017-06-02T03:28:07.628Z,0
2017-06-02T03:29:09.060Z,0
2017-06-02T03:30:10.495Z,0
2017-06-02T03:31:11.932Z,0
2017-06-02T03:32:13.368Z,0
2017-06-02T03:33:14.806Z,0
2017-06-02T03:34:16.237Z,0
2017-06-02T03:35:17.670Z,0
2017-06-02T03:36:19.108Z,0
2017-06-02T03:37:20.543Z,0
2017-06-02T03:38:21.976Z,0
2017-06-02T03:39:23.410Z,0
2017-06-02T03:40:24.843Z,4
2017-06-02T03:41:26.271Z,4
2017-06-02T03:42:27.704Z,4
2017-06-02T03:43:29.146Z,4
2017-06-02T03:44:30.580Z,4
2017-06-02T03:45:32.012Z,4
2017-06-02T03:46:33.456Z,4
2017-06-02T03:47:34.894Z,4
2017-06-02T03:48:36.323Z,4
2017-06-02T03:49:37.757Z,4
2017-06-02T03:50:39.193Z,4
2017-06-02T03:51:40.626Z,0
2017-06-02T03:52:42.066Z,0
2017-06-02T03:53:43.498Z,0
2017-06-02T03:54:44.931Z,0
2017-06-02T03:55:46.366Z,4
2017-06-02T03:56:47.806Z,4
2017-06-02T03:57:49.247Z,4
2017-06-02T03:58:50.689Z,4
2017-06-02T03:59:52.128Z,4
2017-06-02T04:00:53.562Z,4
2017-06-02T04:01:54.997Z,4
2017-06-02T04:02:56.432Z,4
2017-06-02T04:03:57.866Z,4
2017-06-02T04:04:59.304Z,4
2017-06-02T04:06:00.746Z,4
2017-06-02T04:07:02.181Z,4
2017-06-02T04:08:03.624Z,4
2017-06-02T04:09:05.052Z,4
2017-06-02T04:10:06.487Z,4
2017-06-02T04:11:07.924Z,8
2017-06-02T04:12:09.356Z,8
2017-06-02T04:13:10.790Z,8
2017-06-02T04:14:12.226Z,8
2017-06-02T04:15:13.658Z,8
2017-06-02T04:16:15.095Z,4
2017-06-02T04:17:16.533Z,4
2017-06-02T04:18:17.967Z,4
2017-06-02T04:19:19.402Z,4
2017-06-02T04:20:20.839Z,4
2017-06-02T04:21:22.277Z,4
2017-06-02T04:22:23.714Z,4
2017-06-02T04:23:25.146Z,4
2017-06-02T04:24:26.583Z,4
2017-06-02T04:25:28.016Z,8
2017-06-02T04:26:29.457Z,8
2017-06-02T04:27:30.899Z,8
2017-06-02T04:28:32.391Z,8
2017-06-02T04:29:33.787Z,8
2017-06-02T04:30:35.222Z,4
2017-06-02T04:31:36.662Z,8
2017-06-02T04:32:38.093Z,8
2017-06-02T04:33:39.541Z,8
2017-06-02T04:34:40.980Z,8
2017-06-02T04:35:42.416Z,8
2017-06-02T04:36:43.861Z,12
2017-06-02T04:37:45.294Z,12
2017-06-02T04:38:46.727Z,8
2017-06-02T04:39:48.164Z,8
2017-06-02T04:40:49.604Z,8
2017-06-02T04:41:51.048Z,8
2017-06-02T04:42:52.491Z,12
2017-06-02T04:43:53.929Z,12
2017-06-02T04:44:56.334Z,12
2017-06-02T04:45:57.763Z,12
2017-06-02T04:46:59.201Z,8
2017-06-02T04:48:00.635Z,12
2017-06-02T04:49:02.067Z,12
2017-06-02T04:50:03.505Z,12
2017-06-02T04:51:04.943Z,12
2017-06-02T04:52:06.382Z,12
2017-06-02T04:53:07.814Z,16
2017-06-02T04:54:09.260Z,12
2017-06-02T04:55:10.702Z,12
2017-06-02T04:56:12.142Z,12
2017-06-02T04:57:13.577Z,16
2017-06-02T04:58:15.020Z,16
2017-06-02T04:59:16.453Z,16
2017-06-02T05:00:17.890Z,16
2017-06-02T05:01:19.326Z,16
2017-06-02T05:02:20.776Z,16
2017-06-02T05:03:22.216Z,16
2017-06-02T05:04:23.657Z,16
2017-06-02T05:05:25.147Z,16
2017-06-02T05:06:26.584Z,16
2017-06-02T05:07:28.016Z,16
2017-06-02T05:08:29.455Z,16
2017-06-02T05:09:30.899Z,16
2017-06-02T05:10:32.339Z,16
2017-06-02T05:11:33.780Z,20
2017-06-02T05:12:35.217Z,16
2017-06-02T05:13:36.666Z,20
2017-06-02T05:14:38.103Z,20
2017-06-02T05:15:39.542Z,20
2017-06-02T05:16:40.985Z,16
2017-06-02T05:17:42.417Z,20
2017-06-02T05:18:43.853Z,20
2017-06-02T05:19:45.294Z,20
2017-06-02T05:20:46.740Z,20
2017-06-02T05:21:48.173Z,20
2017-06-02T05:22:49.611Z,20
2017-06-02T05:23:51.066Z,24
2017-06-02T05:24:52.501Z,24
2017-06-02T05:25:53.936Z,20
2017-06-02T05:26:55.373Z,20
2017-06-02T05:27:56.815Z,20
2017-06-02T05:28:58.256Z,24
2017-06-02T05:29:59.699Z,24
2017-06-02T05:31:01.157Z,24
2017-06-02T05:32:02.599Z,24
2017-06-02T05:33:04.035Z,24
2017-06-02T05:34:05.477Z,24
2017-06-02T05:35:06.920Z,24
2017-06-02T05:36:08.422Z,24
2017-06-02T05:37:09.858Z,24
2017-06-02T05:38:11.296Z,24
2017-06-02T05:39:12.805Z,24
2017-06-02T05:40:14.248Z,24
2017-06-02T05:41:15.683Z,28
2017-06-02T05:42:17.122Z,28
2017-06-02T05:43:18.555Z,28
2017-06-02T05:44:19.995Z,28
2017-06-02T05:45:21.439Z,28
2017-06-02T05:46:22.927Z,28
2017-06-02T05:47:24.361Z,28
2017-06-02T05:48:25.802Z,28
2017-06-02T05:49:27.233Z,28
2017-06-02T05:50:28.668Z,32
2017-06-02T05:51:30.112Z,32
2017-06-02T05:52:31.548Z,32
2017-06-02T05:53:32.989Z,28
2017-06-02T05:54:34.511Z,28
2017-06-02T05:55:35.949Z,28
2017-06-02T05:56:37.391Z,32
2017-06-02T05:57:38.826Z,28
2017-06-02T05:58:40.263Z,28
2017-06-02T05:59:41.693Z,24
2017-06-02T06:00:43.126Z,28
2017-06-02T06:01:44.576Z,28
2017-06-02T06:02:46.013Z,28
2017-06-02T06:03:47.449Z,28
2017-06-02T06:04:48.884Z,28
2017-06-02T06:05:50.322Z,24
2017-06-02T06:06:51.764Z,28
2017-06-02T06:07:53.207Z,28
2017-06-02T06:08:54.644Z,28
2017-06-02T06:09:56.080Z,24
2017-06-02T06:10:57.520Z,28
2017-06-02T06:11:58.956Z,28
2017-06-02T06:13:00.395Z,28
2017-06-02T06:14:01.830Z,32
2017-06-02T06:15:03.269Z,32
2017-06-02T06:16:04.717Z,32
2017-06-02T06:17:06.153Z,32
2017-06-02T06:18:07.592Z,28
2017-06-02T06:19:09.033Z,32
2017-06-02T06:20:10.469Z,32
2017-06-02T06:21:11.969Z,36
2017-06-02T06:22:13.344Z,36
2017-06-02T06:23:14.787Z,36
2017-06-02T06:24:16.225Z,32
2017-06-02T06:25:17.663Z,36
2017-06-02T06:26:19.096Z,36
2017-06-02T06:27:20.527Z,36
2017-06-02T06:28:21.961Z,36
2017-06-02T06:29:23.397Z,36
2017-06-02T06:30:24.829Z,36
2017-06-02T06:31:26.266Z,36
2017-06-02T06:32:27.708Z,36
2017-06-02T06:33:29.142Z,36
2017-06-02T06:34:30.582Z,36
2017-06-02T06:35:32.014Z,40
2017-06-02T06:36:33.454Z,36
2017-06-02T06:37:34.897Z,36
2017-06-02T06:38:36.333Z,36
2017-06-02T06:39:37.764Z,36
2017-06-02T06:40:39.201Z,40
2017-06-02T06:41:40.644Z,40
2017-06-02T06:42:42.075Z,40
2017-06-02T06:43:43.509Z,40
2017-06-02T06:44:44.940Z,40
2017-06-02T06:45:46.379Z,40
2017-06-02T06:46:47.816Z,40
2017-06-02T06:47:49.258Z,40
2017-06-02T06:48:50.691Z,40
2017-06-02T06:49:52.132Z,40
2017-06-02T06:50:53.564Z,40
2017-06-02T06:51:55.003Z,40
2017-06-02T06:52:56.445Z,44
2017-06-02T06:53:57.881Z,44
2017-06-02T06:54:59.313Z,44
2017-06-02T06:56:00.747Z,40
2017-06-02T06:57:02.183Z,44
2017-06-02T06:58:04.584Z,44
2017-06-02T06:59:06.029Z,44
2017-06-02T07:00:07.463Z,48
2017-06-02T07:01:08.896Z,44
2017-06-02T07:02:10.337Z,44
2017-06-02T07:03:11.776Z,44
2017-06-02T07:04:13.217Z,44
2017-06-02T07:05:14.661Z,48
2017-06-02T07:06:16.097Z,48
2017-06-02T07:07:17.539Z,44
2017-06-02T07:08:18.972Z,48
2017-06-02T07:09:20.411Z,48
2017-06-02T07:10:21.852Z,48
2017-06-02T07:11:23.284Z,52
2017-06-02T07:12:24.730Z,48
2017-06-02T07:13:26.172Z,52
2017-06-02T07:14:27.607Z,52
2017-06-02T07:15:29.042Z,52
2017-06-02T07:16:30.488Z,52
2017-06-02T07:17:31.919Z,48
2017-06-02T07:18:33.357Z,48
2017-06-02T07:19:34.802Z,52
2017-06-02T07:20:36.239Z,52
2017-06-02T07:21:37.675Z,52
2017-06-02T07:22:39.107Z,48
2017-06-02T07:23:40.543Z,48
2017-06-02T07:24:42.021Z,52
2017-06-02T07:25:43.457Z,52
2017-06-02T07:26:44.906Z,52
2017-06-02T07:27:46.351Z,56
2017-06-02T07:28:47.787Z,52
2017-06-02T07:29:49.227Z,56
2017-06-02T07:30:50.666Z,52
2017-06-02T07:31:52.097Z,52
2017-06-02T07:32:53.537Z,32
2017-06-02T07:33:54.972Z,32
2017-06-02T07:34:56.408Z,32
2017-06-02T07:35:57.846Z,32
2017-06-02T07:36:59.285Z,32
2017-06-02T07:38:00.724Z,32
2017-06-02T07:39:02.163Z,32
2017-06-02T07:40:03.604Z,32
2017-06-02T07:41:05.045Z,32
2017-06-02T07:42:06.489Z,28
2017-06-02T07:43:07.926Z,28
2017-06-02T07:44:09.362Z,28
2017-06-02T07:45:10.801Z,32
2017-06-02T07:46:12.242Z,28
2017-06-02T07:47:13.684Z,32
2017-06-02T07:48:15.119Z,32
2017-06-02T07:49:16.560Z,32
2017-06-02T07:50:18.005Z,32
2017-06-02T07:51:19.953Z,32
2017-06-02T07:52:21.389Z,32
2017-06-02T07:53:22.934Z,32
2017-06-02T07:54:24.379Z,32
2017-06-02T07:55:25.823Z,32
2017-06-02T07:56:27.263Z,32
2017-06-02T07:57:28.707Z,28
2017-06-02T07:58:30.146Z,28
2017-06-02T07:59:31.579Z,28
2017-06-02T08:00:33.060Z,28
2017-06-02T08:01:34.499Z,28
2017-06-02T08:02:35.933Z,28
2017-06-02T08:03:37.376Z,64
2017-06-02T08:04:38.809Z,60
2017-06-02T08:05:40.251Z,64
2017-06-02T08:06:41.691Z,60
2017-06-02T08:07:43.127Z,64
2017-06-02T08:08:44.568Z,64
2017-06-02T08:09:46.012Z,60
2017-06-02T08:10:47.450Z,60
2017-06-02T08:11:48.898Z,60
2017-06-02T08:12:50.329Z,60
2017-06-02T08:13:51.771Z,60
2017-06-02T08:14:53.212Z,60
2017-06-02T08:15:54.699Z,64
2017-06-02T08:16:56.141Z,64
2017-06-02T08:17:57.594Z,64
2017-06-02T08:18:59.034Z,68
2017-06-02T08:20:00.496Z,64
2017-06-02T08:21:01.949Z,68
2017-06-02T08:22:03.379Z,68
2017-06-02T08:23:04.829Z,72
2017-06-02T08:24:06.268Z,68
2017-06-02T08:25:07.713Z,72
2017-06-02T08:26:09.145Z,72
2017-06-02T08:27:10.581Z,72
2017-06-02T08:28:12.021Z,72
2017-06-02T08:29:13.469Z,76
2017-06-02T08:30:14.901Z,76
2017-06-02T08:31:16.342Z,72
2017-06-02T08:32:17.794Z,72
2017-06-02T08:33:19.229Z,72
2017-06-02T08:34:21.167Z,68
2017-06-02T08:35:22.606Z,68
2017-06-02T08:36:24.042Z,68
2017-06-02T08:37:25.483Z,68
2017-06-02T08:38:26.923Z,72
2017-06-02T08:39:28.359Z,76
2017-06-02T08:40:29.797Z,72
2017-06-02T08:41:31.229Z,76
2017-06-02T08:42:32.670Z,72
2017-06-02T08:43:34.124Z,72
2017-06-02T08:44:35.554Z,72
2017-06-02T08:45:36.997Z,68
2017-06-02T08:46:38.435Z,68
2017-06-02T08:47:39.873Z,68
2017-06-02T08:48:41.313Z,64
2017-06-02T08:49:42.755Z,68
2017-06-02T08:50:44.192Z,68
2017-06-02T08:51:45.626Z,64
2017-06-02T08:52:47.068Z,68
2017-06-02T08:53:48.504Z,72
2017-06-02T08:54:49.943Z,72
2017-06-02T08:55:51.378Z,76
2017-06-02T08:56:52.812Z,72
2017-06-02T08:57:54.245Z,68
2017-06-02T08:58:55.685Z,68
2017-06-02T08:59:57.120Z,76
2017-06-02T09:00:58.559Z,76
2017-06-02T09:01:59.997Z,76
2017-06-02T09:03:01.434Z,80
2017-06-02T09:04:02.872Z,84
2017-06-02T09:05:04.307Z,84
2017-06-02T09:06:05.747Z,88
2017-06-02T09:07:07.184Z,84
2017-06-02T09:08:08.629Z,84
2017-06-02T09:09:10.069Z,88
2017-06-02T09:10:11.505Z,84
2017-06-02T09:11:12.942Z,80
2017-06-02T09:12:14.390Z,80
2017-06-02T09:13:15.824Z,80
2017-06-02T09:14:17.267Z,88
2017-06-02T09:15:18.711Z,96
2017-06-02T09:16:20.151Z,96
2017-06-02T09:17:21.591Z,92
2017-06-02T09:18:23.035Z,96
2017-06-02T09:19:24.472Z,96
2017-06-02T09:20:25.907Z,92
2017-06-02T09:21:27.348Z,88
2017-06-02T09:22:28.845Z,88
2017-06-02T09:23:30.241Z,88
2017-06-02T09:24:31.676Z,92
2017-06-02T09:25:33.115Z,88
2017-06-02T09:26:34.552Z,56
2017-06-02T09:27:35.987Z,52
2017-06-02T09:28:37.423Z,52
2017-06-02T09:29:38.867Z,56
2017-06-02T09:30:40.305Z,56
2017-06-02T09:31:41.744Z,52
2017-06-02T09:32:43.191Z,52
2017-06-02T09:33:44.636Z,56
2017-06-02T09:34:46.075Z,56
2017-06-02T09:35:47.514Z,52
2017-06-02T09:36:48.954Z,52
2017-06-02T09:37:50.394Z,52
2017-06-02T09:38:51.834Z,48
2017-06-02T09:39:53.273Z,52
2017-06-02T09:40:54.717Z,48
2017-06-02T09:41:56.155Z,48
2017-06-02T09:42:57.593Z,48
2017-06-02T09:43:59.045Z,48
2017-06-02T09:45:00.487Z,44
2017-06-02T09:46:01.924Z,48
2017-06-02T09:47:03.356Z,44
2017-06-02T09:48:04.795Z,36
2017-06-02T09:49:06.233Z,40
2017-06-02T09:50:07.668Z,48
2017-06-02T09:51:09.105Z,48
2017-06-02T09:52:10.547Z,56
2017-06-02T09:53:11.982Z,52
2017-06-02T09:54:13.416Z,52
2017-06-02T09:55:14.853Z,52
2017-06-02T09:56:16.287Z,48
2017-06-02T09:57:17.732Z,48
2017-06-02T09:58:19.176Z,52
2017-06-02T09:59:20.616Z,48
2017-06-02T10:00:22.054Z,48
2017-06-02T10:01:23.488Z,48
2017-06-02T10:02:24.949Z,48
2017-06-02T10:03:26.388Z,48
2017-06-02T10:04:27.828Z,48
2017-06-02T10:05:29.265Z,48
2017-06-02T10:06:30.712Z,44
2017-06-02T10:07:32.144Z,40
2017-06-02T10:08:33.582Z,44
2017-06-02T10:09:35.015Z,40
2017-06-02T10:10:36.462Z,40
2017-06-02T10:11:37.897Z,40
2017-06-02T10:12:39.356Z,36
2017-06-02T10:13:40.803Z,44
2017-06-02T10:14:42.237Z,48
2017-06-02T10:15:43.684Z,48
2017-06-02T10:16:45.119Z,44
2017-06-02T10:17:46.558Z,48
2017-06-02T10:18:48.003Z,48
2017-06-02T10:19:49.440Z,44
2017-06-02T10:20:50.875Z,44
2017-06-02T10:21:52.311Z,44
2017-06-02T10:22:53.754Z,44
2017-06-02T10:23:55.204Z,40
2017-06-02T10:24:56.652Z,44
2017-06-02T10:25:58.088Z,76
2017-06-02T10:26:59.531Z,76
2017-06-02T10:28:00.963Z,76
2017-06-02T10:29:02.403Z,76
2017-06-02T10:30:03.843Z,72
2017-06-02T10:31:05.280Z,76
2017-06-02T10:32:06.729Z,76
2017-06-02T10:33:08.162Z,76
2017-06-02T10:34:09.606Z,72
2017-06-02T10:35:11.045Z,72
2017-06-02T10:36:12.487Z,80
2017-06-02T10:37:13.933Z,72
2017-06-02T10:38:15.376Z,76
2017-06-02T10:39:16.822Z,76
2017-06-02T10:40:18.258Z,76
2017-06-02T10:41:19.698Z,72
2017-06-02T10:42:21.139Z,72
2017-06-02T10:43:22.574Z,72
2017-06-02T10:44:24.016Z,72
2017-06-02T10:45:25.460Z,72
2017-06-02T10:46:26.894Z,68
2017-06-02T10:47:28.333Z,76
2017-06-02T10:48:29.780Z,72
2017-06-02T10:49:31.230Z,64
2017-06-02T10:50:32.663Z,64
2017-06-02T10:51:34.101Z,60
2017-06-02T10:52:35.533Z,64
2017-06-02T10:53:36.989Z,64
2017-06-02T10:54:38.414Z,68
2017-06-02T10:55:39.866Z,64
2017-06-02T10:56:41.387Z,68
2017-06-02T10:57:42.837Z,68
2017-06-02T10:58:44.267Z,76
2017-06-02T10:59:45.708Z,76
2017-06-02T11:00:47.144Z,72
2017-06-02T11:01:48.628Z,76
2017-06-02T11:02:50.067Z,72
2017-06-02T11:03:51.501Z,76
2017-06-02T11:04:52.941Z,72
2017-06-02T11:05:54.375Z,72
2017-06-02T11:06:55.820Z,76
2017-06-02T11:07:57.268Z,76
2017-06-02T11:08:58.706Z,72
2017-06-02T11:10:00.145Z,76
2017-06-02T11:11:01.577Z,72
2017-06-02T11:12:03.026Z,72
2017-06-02T11:13:04.471Z,72
2017-06-02T11:14:05.921Z,72
2017-06-02T11:15:07.352Z,72
2017-06-02T11:16:08.793Z,72
2017-06-02T11:17:10.242Z,68
2017-06-02T11:18:11.676Z,68
2017-06-02T11:19:13.117Z,68
2017-06-02T11:20:14.558Z,64
2017-06-02T11:21:16.004Z,64
2017-06-02T11:22:17.445Z,64
2017-06-02T11:23:18.886Z,68
2017-06-02T11:24:20.325Z,64
2017-06-02T11:25:21.761Z,64
2017-06-02T11:26:23.199Z,64
2017-06-02T11:27:24.688Z,60
2017-06-02T11:28:26.121Z,60
2017-06-02T11:29:27.563Z,64
2017-06-02T11:30:29.029Z,60
2017-06-02T11:31:30.487Z,64
2017-06-02T11:32:31.925Z,60
2017-06-02T11:33:33.370Z,60
2017-06-02T11:34:34.808Z,60
2017-06-02T11:35:36.249Z,60
2017-06-02T11:36:37.683Z,64
2017-06-02T11:37:39.126Z,60
2017-06-02T11:38:40.564Z,64
2017-06-02T11:39:42.001Z,44
2017-06-02T11:40:43.487Z,64
2017-06-02T11:41:44.941Z,64
2017-06-02T11:42:46.381Z,60
2017-06-02T11:43:47.820Z,64
2017-06-02T11:44:49.253Z,60
2017-06-02T11:45:50.696Z,56
2017-06-02T11:46:52.134Z,56
2017-06-02T11:47:53.572Z,52
2017-06-02T11:48:55.003Z,52
2017-06-02T11:49:57.135Z,52
2017-06-02T11:50:58.578Z,56
2017-06-02T11:52:00.018Z,40
2017-06-02T11:53:01.459Z,36
2017-06-02T11:54:02.911Z,36
2017-06-02T11:55:04.353Z,36
2017-06-02T11:56:05.791Z,36
2017-06-02T11:57:07.240Z,36
2017-06-02T11:58:08.677Z,36
2017-06-02T11:59:10.119Z,36
2017-06-02T12:00:11.557Z,40
2017-06-02T12:01:13.015Z,40
2017-06-02T12:02:14.454Z,40
2017-06-02T12:03:15.888Z,40
2017-06-02T12:04:17.325Z,40
2017-06-02T12:05:18.758Z,36
2017-06-02T12:06:20.202Z,36
2017-06-02T12:07:21.659Z,36
2017-06-02T12:08:23.096Z,36
2017-06-02T12:09:24.532Z,40
2017-06-02T12:10:25.972Z,44
2017-06-02T12:11:27.404Z,40
2017-06-02T12:12:28.841Z,28
2017-06-02T12:13:30.294Z,24
2017-06-02T12:14:31.744Z,20
2017-06-02T12:15:33.182Z,20
2017-06-02T12:16:34.622Z,24
2017-06-02T12:17:36.067Z,24
2017-06-02T12:18:37.506Z,28
2017-06-02T12:19:38.943Z,32
2017-06-02T12:20:40.387Z,32
2017-06-02T12:21:41.825Z,36
2017-06-02T12:22:43.263Z,36
2017-06-02T12:23:44.705Z,24
2017-06-02T12:24:46.147Z,32
2017-06-02T12:25:47.580Z,36
2017-06-02T12:26:49.019Z,32
2017-06-02T12:27:50.462Z,36
2017-06-02T12:28:51.907Z,36
2017-06-02T12:29:53.349Z,52
2017-06-02T12:30:54.784Z,56
2017-06-02T12:31:56.227Z,56
2017-06-02T12:32:57.671Z,52
2017-06-02T12:33:59.107Z,56
2017-06-02T12:35:00.545Z,56
2017-06-02T12:36:01.990Z,56
2017-06-02T12:37:03.427Z,56
2017-06-02T12:38:04.871Z,52
2017-06-02T12:39:06.311Z,52
2017-06-02T12:40:07.767Z,48
2017-06-02T12:41:09.207Z,52
2017-06-02T12:42:10.654Z,36
2017-06-02T12:43:12.094Z,32
2017-06-02T12:44:13.535Z,24
2017-06-02T12:45:14.973Z,168
2017-06-02T12:46:16.439Z,184
2017-06-02T12:47:17.889Z,152
2017-06-02T12:48:19.330Z,96
2017-06-02T12:49:21.803Z,92
2017-06-02T12:50:23.239Z,92
2017-06-02T12:51:24.680Z,92
2017-06-02T12:52:26.126Z,92
2017-06-02T12:53:27.566Z,88
2017-06-02T12:54:28.999Z,92
2017-06-02T12:55:30.443Z,92
2017-06-02T12:56:31.886Z,92
2017-06-02T12:57:33.325Z,112
2017-06-02T12:58:34.767Z,156
2017-06-02T12:59:36.209Z,164
2017-06-02T13:00:37.644Z,164
2017-06-02T13:01:39.114Z,124
2017-06-02T13:02:40.546Z,148
2017-06-02T13:03:41.984Z,144
2017-06-02T13:04:43.431Z,92
2017-06-02T13:05:44.872Z,96
2017-06-02T13:06:46.308Z,96
2017-06-02T13:07:47.765Z,100
2017-06-02T13:08:49.196Z,104
2017-06-02T13:09:50.636Z,156
2017-06-02T13:10:52.085Z,152
2017-06-02T13:11:53.529Z,164
2017-06-02T13:12:54.970Z,156
2017-06-02T13:13:56.408Z,164
2017-06-02T13:14:57.857Z,128
2017-06-02T13:15:59.310Z,156
2017-06-02T13:17:00.749Z,116
2017-06-02T13:18:02.200Z,148
2017-06-02T13:19:03.644Z,96
2017-06-02T13:20:05.083Z,96
2017-06-02T13:21:06.517Z,104
2017-06-02T13:22:07.961Z,116
2017-06-02T13:23:09.400Z,88
2017-06-02T13:24:10.838Z,88
2017-06-02T13:25:12.278Z,84
2017-06-02T13:26:13.718Z,84
2017-06-02T13:27:15.159Z,88
2017-06-02T13:28:16.601Z,88
2017-06-02T13:29:19.591Z,92
2017-06-02T13:30:20.276Z,92
2017-06-02T13:31:21.695Z,148
2017-06-02T13:32:23.148Z,148
2017-06-02T13:33:24.587Z,96
2017-06-02T13:34:26.022Z,92
2017-06-02T13:35:27.468Z,92
2017-06-02T13:36:28.908Z,96
2017-06-02T13:37:30.349Z,104
2017-06-02T13:38:31.793Z,100
2017-06-02T13:39:33.228Z,104
2017-06-02T13:40:34.682Z,132
2017-06-02T13:41:36.121Z,108
2017-06-02T13:42:37.573Z,140
2017-06-02T13:43:39.011Z,124
2017-06-02T13:44:40.446Z,80
2017-06-02T13:45:41.888Z,76
2017-06-02T13:46:43.334Z,72
2017-06-02T13:47:44.770Z,68
2017-06-02T13:48:46.214Z,68
2017-06-02T13:49:47.649Z,72
2017-06-02T13:50:49.086Z,72
2017-06-02T13:51:50.524Z,72
2017-06-02T13:52:51.978Z,76
2017-06-02T13:53:53.422Z,108
2017-06-02T13:54:54.860Z,72
2017-06-02T13:55:57.226Z,72
2017-06-02T13:56:58.674Z,68
2017-06-02T13:58:00.115Z,76
2017-06-02T13:59:01.592Z,76
2017-06-02T14:00:03.032Z,80
2017-06-02T14:01:04.470Z,80
2017-06-02T14:02:05.910Z,80
2017-06-02T14:03:07.347Z,80
2017-06-02T14:04:08.794Z,84
2017-06-02T14:05:10.224Z,84
2017-06-02T14:06:11.669Z,112
2017-06-02T14:07:13.111Z,108
2017-06-02T14:08:14.549Z,116
2017-06-02T14:09:15.996Z,116
2017-06-02T14:10:17.447Z,116
2017-06-02T14:11:18.886Z,112
2017-06-02T14:12:20.331Z,96
2017-06-02T14:13:21.765Z,84
2017-06-02T14:14:23.208Z,92
2017-06-02T14:15:24.651Z,112
2017-06-02T14:16:26.088Z,96
2017-06-02T14:17:27.547Z,64
2017-06-02T14:18:28.980Z,64
2017-06-02T14:19:30.419Z,60
2017-06-02T14:20:31.861Z,60
2017-06-02T14:21:33.304Z,56
2017-06-02T14:22:34.741Z,56
2017-06-02T14:23:36.181Z,56
2017-06-02T14:24:37.621Z,56
2017-06-02T14:25:39.067Z,60
2017-06-02T14:26:40.503Z,56
2017-06-02T14:27:41.953Z,56
2017-06-02T14:28:43.392Z,56
2017-06-02T14:29:44.827Z,60
2017-06-02T14:30:46.270Z,60
2017-06-02T14:31:47.713Z,56
2017-06-02T14:32:49.149Z,56
2017-06-02T14:33:50.585Z,52
2017-06-02T14:34:52.031Z,52
2017-06-02T14:35:53.478Z,20
2017-06-02T14:36:54.931Z,28
2017-06-02T14:37:56.372Z,24
2017-06-02T14:38:57.819Z,24
2017-06-02T14:39:59.250Z,28
2017-06-02T14:41:00.687Z,28
2017-06-02T14:42:02.128Z,28
2017-06-02T14:43:03.563Z,24
2017-06-02T14:44:05.002Z,24